»·PEaware :: N1920F KWVI-KSAC

N1920F :: KWVI-KSAC

FLIGHT INFORMATION

Flight Status: Arrived
Operator: Privately registered:
United States
More flights under this callsign
Pilot: Timothy S. (27694)
Aircraft: CESSNA 172 SKYHAWK
(C172)
More flights by this aircraft type
Origin: KWVI Watsonville Mun
United States
Destination: KSAC Sacramento Executive
United States
More flights between these airports :: More routes between these airports
Route:
File this flight plan on PilotEdge
Remarks:
Altitude:
(Current/Filed)
0ft
Speed:
(Current/Filed)
0kts
Departed: 22-Feb-21 10:03 PM
Arrived: 22-Feb-21 10:58 PM
Distance/Time
Traveled:
96nm/0:55
Distance/Time
To Go:
Arrived

Flight Plot

Page will automatically refresh every two minutes.

Flight plan parsing failed; only flown route is shown


Map Options




Map Legend


Flown Route
Filed Route
Departure Airport
Arrival Airport
Navaid (VOR, NDB)
Fix

Horizontal Profiles

Position Reports

Time Latitude Longitude Heading Altitude Ground
Speed
22-Feb-21 22:02 37.061241 -121.615351 74 4829ft 110kts
22-Feb-21 22:03 37.074337 -121.583144 61 5289ft 103kts
22-Feb-21 22:04 37.090576 -121.552359 62 5434ft 102kts
22-Feb-21 22:05 37.105846 -121.523801 62 5518ft 102kts
22-Feb-21 22:06 37.121743 -121.494481 59 5654ft 100kts
22-Feb-21 22:06 37.139033 -121.473425 41 5748ft 105kts
22-Feb-21 22:08 37.166544 -121.446134 45 5673ft 115kts
22-Feb-21 22:09 37.191554 -121.418346 50 5304ft 123kts
22-Feb-21 22:09 37.209053 -121.393578 55 5424ft 103kts
22-Feb-21 22:11 37.231265 -121.359356 59 5367ft 117kts
22-Feb-21 22:11 37.241548 -121.327981 85 5078ft 109kts
22-Feb-21 22:12 37.253302 -121.292289 59 5264ft 111kts
22-Feb-21 22:13 37.271402 -121.259028 54 5304ft 131kts
22-Feb-21 22:15 37.297937 -121.224838 45 5336ft 130kts
22-Feb-21 22:16 37.324019 -121.198249 33 5603ft 120kts
22-Feb-21 22:16 37.346278 -121.176157 49 5668ft 117kts
22-Feb-21 22:17 37.373245 -121.147872 35 5385ft 135kts
22-Feb-21 22:18 37.403418 -121.122404 38 5382ft 117kts
22-Feb-21 22:19 37.432055 -121.110066 345 5892ft 106kts
22-Feb-21 22:20 37.460004 -121.123181 336 6513ft 94kts
22-Feb-21 22:21 37.486432 -121.141914 330 6638ft 112kts
22-Feb-21 22:22 37.513479 -121.160534 334 6776ft 110kts
22-Feb-21 22:23 37.542824 -121.177429 342 6716ft 128kts
22-Feb-21 22:24 37.576424 -121.187347 354 6614ft 127kts
22-Feb-21 22:25 37.608414 -121.187616 20 6806ft 111kts
22-Feb-21 22:26 37.640688 -121.180646 13 6699ft 120kts
22-Feb-21 22:27 37.673942 -121.185527 342 6620ft 125kts
22-Feb-21 22:28 37.704858 -121.194560 348 6762ft 119kts
22-Feb-21 22:29 37.739003 -121.204903 349 6557ft 121kts
22-Feb-21 22:30 37.771474 -121.216829 344 6500ft 120kts
22-Feb-21 22:31 37.802608 -121.228483 343 6624ft 111kts
22-Feb-21 22:32 37.833877 -121.237302 345 6617ft 114kts
22-Feb-21 22:33 37.864125 -121.252002 334 6640ft 113kts
22-Feb-21 22:34 37.889736 -121.272412 330 6777ft 117kts
22-Feb-21 22:35 37.920969 -121.288202 340 6609ft 121kts
22-Feb-21 22:36 37.952068 -121.301822 345 6496ft 126kts
22-Feb-21 22:37 37.983462 -121.294280 20 6374ft 121kts
22-Feb-21 22:38 38.015470 -121.285747 358 6232ft 122kts
22-Feb-21 22:39 38.047499 -121.296226 339 6163ft 116kts
22-Feb-21 22:40 38.075893 -121.313217 334 6130ft 110kts
22-Feb-21 22:41 38.105759 -121.331419 336 5821ft 120kts
22-Feb-21 22:42 38.135867 -121.346751 341 5742ft 114kts
22-Feb-21 22:43 38.166651 -121.362793 340 5259ft 118kts
22-Feb-21 22:44 38.198671 -121.377631 340 4624ft 123kts
22-Feb-21 22:45 38.231157 -121.389266 352 4141ft 116kts
22-Feb-21 22:46 38.263641 -121.398156 347 3637ft 115kts
22-Feb-21 22:47 38.294335 -121.410226 340 3253ft 115kts
22-Feb-21 22:48 38.323881 -121.424439 341 2917ft 114kts
22-Feb-21 22:49 38.353822 -121.437941 340 2549ft 112kts
22-Feb-21 22:50 38.381778 -121.453910 339 2363ft 104kts
22-Feb-21 22:51 38.409341 -121.471866 332 1921ft 115kts
22-Feb-21 22:52 38.438369 -121.489407 343 1446ft 113kts
22-Feb-21 22:53 38.469065 -121.498891 348 1063ft 109kts
22-Feb-21 22:54 38.497501 -121.495284 36 932ft 105kts
22-Feb-21 22:55 38.519489 -121.472889 44 926ft 86kts
22-Feb-21 22:56 38.525742 -121.484155 216 477ft 81kts
22-Feb-21 22:57 38.511476 -121.495814 246 20ft 24kts
22-Feb-21 22:58 38.513582 -121.496334 240 23ft 18kts
22-Feb-21 22:59 38.513206 -121.497151 31 23ft 0kts
22-Feb-21 23:00 38.513206 -121.497151 31 23ft 0kts

Navigation Log

Ident Type
Flight plan parsing failed, navigation log unavailable